Time;durP1;ratioP1;P1;durP2;ratioP2;P2;SDS_P1;SDS_P2;PMS_P1;PMS_P2;Temp;Humidity;BMP_temperature;BMP_pressure;BME280_temperature;BME280_humidity;BME280_pressure;Samples;Min_cycle;Max_cycle;Signal;HPM_P1;HPM_P2
2023/11/15 00:01:04;;;;;;;2.13;0.90;;;;;;;3.95;93.71;100434.66;5082778;28;20069;-68
2023/11/15 00:03:29;;;;;;;1.02;0.80;;;;;;;3.96;93.39;100446.94;5103664;28;20044;-68
2023/11/15 00:05:55;;;;;;;2.03;0.77;;;;;;;3.82;94.70;100444.94;5104191;28;20125;-67
2023/11/15 00:08:20;;;;;;;0.90;0.73;;;;;;;3.83;95.11;100446.59;5085184;28;20054;-67
2023/11/15 00:10:46;;;;;;;2.35;0.98;;;;;;;3.94;95.04;100443.59;5100950;28;20035;-68
2023/11/15 00:13:11;;;;;;;1.75;0.90;;;;;;;4.15;93.99;100443.97;5102175;28;20107;-68
2023/11/15 00:15:37;;;;;;;1.00;0.90;;;;;;;4.13;93.00;100453.13;5102837;28;20032;-68
2023/11/15 00:18:04;;;;;;;0.68;0.60;;;;;;;4.29;92.89;100454.97;5103183;28;20024;-68
2023/11/15 00:20:33;;;;;;;2.00;1.02;;;;;;;4.22;92.19;100452.97;5103824;28;20028;-68
2023/11/15 00:23:02;;;;;;;1.30;0.75;;;;;;;3.99;92.65;100457.28;5104224;28;20474;-68
2023/11/15 00:25:28;;;;;;;1.85;0.90;;;;;;;4.08;93.34;100461.63;5105779;28;20047;-68
2023/11/15 00:27:56;;;;;;;1.83;0.93;;;;;;;3.71;94.13;100454.91;5105940;28;20032;-68
2023/11/15 00:30:23;;;;;;;1.00;0.73;;;;;;;4.00;93.89;100465.06;5104889;28;20024;-68
2023/11/15 00:32:49;;;;;;;1.35;0.93;;;;;;;4.15;92.84;100472.44;5107766;28;20032;-68
2023/11/15 00:35:14;;;;;;;1.83;0.85;;;;;;;4.10;92.55;100480.91;5094705;28;20031;-68
2023/11/15 00:37:40;;;;;;;1.48;0.77;;;;;;;3.75;94.11;100474.88;5100776;28;20028;-68
2023/11/15 00:40:06;;;;;;;1.25;0.88;;;;;;;4.13;92.56;100485.91;5091580;28;20058;-68
2023/11/15 00:42:32;;;;;;;1.30;0.85;;;;;;;3.90;93.00;100484.88;5105845;28;20032;-68
2023/11/15 00:44:58;;;;;;;0.82;0.77;;;;;;;3.89;93.48;100485.88;5108285;28;20506;-68
2023/11/15 00:47:23;;;;;;;1.27;0.70;;;;;;;3.97;93.25;100493.84;5104341;28;20032;-68
2023/11/15 00:49:48;;;;;;;1.30;0.60;;;;;;;4.05;92.39;100493.88;5101651;28;20090;-68
2023/11/15 00:52:14;;;;;;;1.90;0.90;;;;;;;3.97;92.46;100493.84;5101849;28;20108;-68
2023/11/15 00:54:40;;;;;;;1.65;0.80;;;;;;;3.90;93.03;100479.53;5108187;28;20024;-68
2023/11/15 00:57:06;;;;;;;1.23;0.60;;;;;;;4.03;92.87;100501.19;5089271;28;20122;-68
2023/11/15 00:59:37;;;;;;;0.90;0.80;;;;;;;3.87;93.81;100499.34;5100895;28;20117;-67
2023/11/15 01:02:06;;;;;;;2.38;0.70;;;;;;;4.13;91.78;100506.38;5102084;28;20672;-67
2023/11/15 01:04:32;;;;;;;2.95;0.93;;;;;;;3.69;93.96;100506.63;5077668;28;20028;-68
2023/11/15 01:06:59;;;;;;;0.90;0.52;;;;;;;3.81;94.07;100517.78;5103587;28;20161;-68
2023/11/15 01:09:25;;;;;;;1.05;0.70;;;;;;;3.97;92.93;100512.50;5111748;28;20024;-68
2023/11/15 01:11:52;;;;;;;2.08;0.98;;;;;;;3.92;93.38;100520.97;5109976;28;20024;-68
2023/11/15 01:14:19;;;;;;;1.65;0.80;;;;;;;3.94;92.41;100518.16;5107477;28;20042;-68
2023/11/15 01:16:45;;;;;;;1.27;0.80;;;;;;;3.96;92.40;100527.63;5108697;28;20028;-68
2023/11/15 01:19:10;;;;;;;1.10;0.80;;;;;;;3.78;93.28;100523.47;5105264;28;20134;-68
2023/11/15 01:21:36;;;;;;;1.42;0.90;;;;;;;3.75;93.38;100513.97;5108198;28;20033;-68
2023/11/15 01:24:01;;;;;;;2.05;0.90;;;;;;;3.63;93.09;100526.72;5106845;28;20040;-68
2023/11/15 01:26:27;;;;;;;0.70;0.70;;;;;;;3.77;93.49;100549.22;5088739;28;20036;-68
2023/11/15 01:28:54;;;;;;;1.80;0.95;;;;;;;4.12;92.88;100544.66;5108526;28;20028;-68
2023/11/15 01:31:20;;;;;;;1.15;0.80;;;;;;;4.31;91.22;100560.34;5107652;28;20024;-67
2023/11/15 01:33:45;;;;;;;0.82;0.70;;;;;;;4.12;91.81;100563.28;5107648;28;20099;-68
2023/11/15 01:36:11;;;;;;;1.00;0.70;;;;;;;4.00;91.59;100552.94;5108990;28;20024;-68
2023/11/15 01:38:37;;;;;;;1.38;0.80;;;;;;;3.66;93.39;100541.53;5088638;28;20036;-68
2023/11/15 01:41:07;;;;;;;2.33;1.00;;;;;;;3.96;92.72;100564.09;5091822;28;20043;-68
2023/11/15 01:43:36;;;;;;;1.02;0.80;;;;;;;3.81;92.99;100568.34;5106815;28;20032;-68
2023/11/15 01:46:02;;;;;;;1.00;0.70;;;;;;;3.56;94.17;100554.13;5092535;28;20028;-68
2023/11/15 01:48:29;;;;;;;1.13;0.90;;;;;;;3.79;93.21;100567.69;5088773;28;20042;-67
2023/11/15 01:50:55;;;;;;;1.73;0.80;;;;;;;3.89;92.46;100576.38;5109465;28;20023;-68
2023/11/15 01:53:21;;;;;;;1.15;0.80;;;;;;;3.59;94.13;100569.78;5104498;28;20471;-68
2023/11/15 01:55:47;;;;;;;0.93;0.80;;;;;;;3.76;93.28;100575.00;5102817;28;20046;-68
2023/11/15 01:58:16;;;;;;;2.95;0.98;;;;;;;3.81;93.79;100576.31;5104509;28;20052;-68
2023/11/15 02:00:42;;;;;;;0.82;0.70;;;;;;;3.95;92.82;100573.91;5105912;28;20141;-68
2023/11/15 02:03:08;;;;;;;1.70;0.88;;;;;;;3.64;93.52;100565.66;5099874;28;20066;-67
2023/11/15 02:05:33;;;;;;;1.35;0.90;;;;;;;3.55;94.22;100574.59;5085217;28;20028;-68
2023/11/15 02:07:59;;;;;;;0.95;0.80;;;;;;;3.56;94.21;100572.75;5081423;28;20050;-68
2023/11/15 02:10:24;;;;;;;1.50;0.80;;;;;;;3.43;94.03;100566.03;5102227;28;20024;-68
2023/11/15 02:12:50;;;;;;;1.50;0.90;;;;;;;3.49;95.06;100569.88;5101341;28;20032;-67
2023/11/15 02:15:15;;;;;;;1.48;0.90;;;;;;;3.45;94.55;100560.56;5108120;28;20043;-68
2023/11/15 02:17:48;;;;;;;1.00;0.45;;;;;;;3.68;94.24;100571.47;5108919;28;20032;-68
2023/11/15 02:20:15;;;;;;;1.55;0.90;;;;;;;3.71;93.36;100572.00;5108887;28;20027;-68
2023/11/15 02:22:49;;;;;;;1.02;0.90;;;;;;;3.49;94.17;100552.09;5110058;28;20028;-68
2023/11/15 02:25:16;;;;;;;1.42;0.70;;;;;;;3.52;93.56;100580.22;5110325;28;20024;-68
2023/11/15 02:27:42;;;;;;;1.10;0.80;;;;;;;3.65;93.42;100585.94;5106262;28;20575;-68
2023/11/15 02:30:08;;;;;;;1.17;0.80;;;;;;;3.64;93.25;100576.28;5102513;28;20035;-68
2023/11/15 02:32:36;;;;;;;1.67;0.90;;;;;;;3.54;93.72;100575.56;5107595;28;20042;-68
2023/11/15 02:35:02;;;;;;;1.52;0.70;;;;;;;3.47;92.63;100563.88;5107877;28;20050;-68
2023/11/15 02:37:29;;;;;;;1.90;1.00;;;;;;;3.62;92.93;100580.94;5109853;28;20050;-68
2023/11/15 02:39:54;;;;;;;1.23;0.82;;;;;;;3.73;92.44;100601.91;5103822;28;20024;-68
2023/11/15 02:42:20;;;;;;;1.80;0.90;;;;;;;3.67;92.83;100599.91;5096808;28;20421;-68
2023/11/15 02:44:45;;;;;;;0.70;0.63;;;;;;;3.90;91.09;100591.34;5075491;28;20174;-68
2023/11/15 02:47:11;;;;;;;1.27;0.80;;;;;;;3.91;91.12;100598.34;5076365;28;20043;-68
2023/11/15 02:49:37;;;;;;;1.65;0.70;;;;;;;3.76;91.90;100596.28;5090883;28;20020;-68
2023/11/15 02:52:02;;;;;;;1.90;0.70;;;;;;;3.67;91.56;100602.56;5108373;28;20398;-68
2023/11/15 02:54:28;;;;;;;0.98;0.60;;;;;;;3.66;91.63;100584.94;5089174;28;20019;-67
2023/11/15 02:56:53;;;;;;;0.77;0.68;;;;;;;3.86;91.34;100611.28;5109711;28;20032;-69
2023/11/15 02:59:19;;;;;;;0.80;0.73;;;;;;;3.68;91.52;100614.88;5108639;28;20082;-68
2023/11/15 03:01:50;;;;;;;2.15;0.88;;;;;;;3.57;92.14;100588.53;5107211;28;20422;-68
2023/11/15 03:04:15;;;;;;;0.88;0.60;;;;;;;3.87;91.53;100612.97;5107654;28;20036;-68
2023/11/15 03:06:41;;;;;;;0.90;0.70;;;;;;;3.89;91.23;100616.31;5109335;28;20049;-68
2023/11/15 03:09:07;;;;;;;0.95;0.75;;;;;;;3.86;90.89;100620.09;5108983;28;20059;-68
2023/11/15 03:11:33;;;;;;;1.60;0.80;;;;;;;3.92;90.47;100619.47;5110493;28;20031;-68
2023/11/15 03:13:59;;;;;;;0.70;0.50;;;;;;;3.88;90.53;100620.78;5107770;28;20027;-68
2023/11/15 03:16:24;;;;;;;1.67;0.90;;;;;;;3.78;91.88;100632.56;5108210;28;20032;-68
2023/11/15 03:18:50;;;;;;;1.27;0.80;;;;;;;3.74;91.49;100630.22;5108239;28;20054;-68
2023/11/15 03:21:15;;;;;;;1.13;0.90;;;;;;;3.63;91.82;100635.81;5108776;28;20413;-68
2023/11/15 03:23:41;;;;;;;0.90;0.70;;;;;;;3.57;92.68;100632.94;5108710;28;20057;-67
2023/11/15 03:26:07;;;;;;;1.15;0.90;;;;;;;3.63;92.86;100643.78;5108809;28;20031;-68
2023/11/15 03:28:33;;;;;;;1.38;0.82;;;;;;;3.47;92.89;100638.38;5091051;28;20091;-69
2023/11/15 03:30:59;;;;;;;0.90;0.70;;;;;;;3.57;93.01;100644.41;5108206;28;20031;-68
2023/11/15 03:33:24;;;;;;;1.30;0.85;;;;;;;3.66;91.86;100643.47;5108949;28;20023;-68
2023/11/15 03:35:49;;;;;;;1.23;0.90;;;;;;;3.56;92.67;100642.75;5076133;28;20039;-68
2023/11/15 03:38:15;;;;;;;2.30;0.70;;;;;;;3.53;92.67;100645.72;5113561;28;20050;-68
2023/11/15 03:40:41;;;;;;;2.15;0.80;;;;;;;3.63;92.36;100659.75;5111778;28;20035;-68
2023/11/15 03:43:07;;;;;;;1.50;1.13;;;;;;;3.70;92.28;100657.28;5104614;28;20028;-68
2023/11/15 03:45:33;;;;;;;1.73;0.90;;;;;;;3.57;91.84;100640.91;5105162;28;20035;-68
2023/11/15 03:48:02;;;;;;;1.08;0.60;;;;;;;3.69;91.61;100647.66;5106536;28;20086;-68
2023/11/15 03:50:28;;;;;;;1.05;0.90;;;;;;;3.58;92.62;100655.91;5107642;28;20047;-68
2023/11/15 03:52:54;;;;;;;1.27;0.85;;;;;;;3.81;91.53;100656.16;5109254;28;20035;-68
2023/11/15 03:55:19;;;;;;;2.38;1.02;;;;;;;3.55;92.68;100664.19;5091175;28;20024;-69
2023/11/15 03:57:46;;;;;;;1.38;0.75;;;;;;;3.27;93.32;100638.56;5104903;28;20054;-68
2023/11/15 04:00:13;;;;;;;1.30;0.80;;;;;;;3.37;93.20;100646.44;5106964;28;20024;-68
2023/11/15 04:02:39;;;;;;;1.90;1.02;;;;;;;3.46;92.35;100655.31;5098956;28;20023;-68
2023/11/15 04:05:06;;;;;;;1.20;0.60;;;;;;;3.48;92.61;100662.16;5097435;28;20043;-67
2023/11/15 04:07:32;;;;;;;2.08;0.70;;;;;;;3.40;92.95;100674.56;5102611;28;20020;-68
2023/11/15 04:09:58;;;;;;;1.23;0.80;;;;;;;3.41;93.03;100670.91;5105673;28;20054;-68
2023/11/15 04:12:23;;;;;;;0.88;0.70;;;;;;;3.41;92.86;100682.41;5108269;28;20024;-68
2023/11/15 04:14:49;;;;;;;1.42;0.77;;;;;;;3.47;93.31;100681.75;5109535;28;20054;-68
2023/11/15 04:17:14;;;;;;;1.92;0.63;;;;;;;3.44;92.69;100691.88;5109733;28;20028;-68
2023/11/15 04:19:40;;;;;;;1.13;0.80;;;;;;;3.62;92.01;100689.19;5109363;28;20028;-68
2023/11/15 04:22:05;;;;;;;0.80;0.70;;;;;;;3.55;91.73;100682.81;5109963;28;20035;-68
2023/11/15 04:24:31;;;;;;;1.73;1.00;;;;;;;3.66;91.38;100693.19;5107441;28;20020;-68
2023/11/15 04:26:57;;;;;;;1.25;0.70;;;;;;;3.63;90.76;100667.72;5095430;28;20505;-68
2023/11/15 04:29:23;;;;;;;1.83;0.70;;;;;;;3.69;90.91;100691.06;5092178;28;20573;-68
2023/11/15 04:31:49;;;;;;;1.52;0.88;;;;;;;3.85;89.58;100697.47;5113297;28;20383;-68
2023/11/15 04:34:15;;;;;;;1.05;0.63;;;;;;;3.49;91.01;100705.56;5111578;28;20119;-68
2023/11/15 04:36:41;;;;;;;1.10;0.80;;;;;;;3.52;91.16;100700.75;5108280;28;20084;-68
2023/11/15 04:39:08;;;;;;;1.42;0.77;;;;;;;3.57;91.04;100697.63;5105019;28;20035;-68
2023/11/15 04:41:34;;;;;;;1.00;0.80;;;;;;;3.43;91.87;100711.50;5101312;28;20051;-68
2023/11/15 04:44:00;;;;;;;1.52;0.68;;;;;;;3.48;91.16;100714.53;5107165;28;20028;-68
2023/11/15 04:46:26;;;;;;;1.88;0.80;;;;;;;3.41;91.82;100713.47;5111648;28;20024;-68
2023/11/15 04:48:52;;;;;;;0.75;0.63;;;;;;;3.38;91.81;100719.09;5104542;28;20051;-68
2023/11/15 04:51:17;;;;;;;0.95;0.80;;;;;;;3.45;91.93;100723.66;5105123;28;20043;-68
2023/11/15 04:53:43;;;;;;;1.95;0.80;;;;;;;3.43;91.60;100728.28;5085274;28;20123;-68
2023/11/15 04:56:08;;;;;;;1.30;0.77;;;;;;;3.22;91.82;100698.53;5106560;28;20036;-69
2023/11/15 04:58:34;;;;;;;1.17;0.70;;;;;;;3.33;91.94;100738.19;5095545;28;20570;-69
2023/11/15 05:00:59;;;;;;;1.35;0.73;;;;;;;3.19;91.56;100715.63;5109902;28;20052;-68
2023/11/15 05:03:25;;;;;;;1.23;0.52;;;;;;;3.53;90.62;100736.16;5109866;28;20024;-68
2023/11/15 05:05:51;;;;;;;0.73;0.68;;;;;;;3.41;91.09;100734.75;5105812;28;20087;-69
2023/11/15 05:08:17;;;;;;;0.98;0.75;;;;;;;3.41;91.27;100734.75;5102798;28;20027;-68
2023/11/15 05:10:42;;;;;;;1.33;0.90;;;;;;;3.34;91.26;100745.16;5102053;28;20028;-69
2023/11/15 05:13:08;;;;;;;1.52;0.80;;;;;;;3.20;91.33;100733.25;5098949;28;20024;-68
2023/11/15 05:15:34;;;;;;;0.95;0.82;;;;;;;3.30;91.03;100763.25;5097062;28;20060;-68
2023/11/15 05:18:00;;;;;;;0.70;0.70;;;;;;;3.36;91.74;100758.31;5097916;28;20069;-68
2023/11/15 05:20:26;;;;;;;1.05;0.80;;;;;;;3.48;90.67;100760.59;5097329;28;20115;-65
2023/11/15 05:22:52;;;;;;;1.42;0.90;;;;;;;3.59;90.05;100759.50;5096693;28;20038;-68
2023/11/15 05:25:18;;;;;;;1.10;0.68;;;;;;;3.59;90.01;100764.00;5101517;28;20028;-67
2023/11/15 05:27:45;;;;;;;1.70;0.73;;;;;;;3.52;90.30;100766.44;5098026;28;20032;-68
2023/11/15 05:30:11;;;;;;;1.52;0.75;;;;;;;3.37;89.84;100744.03;5099912;28;20031;-68
2023/11/15 05:32:36;;;;;;;1.00;0.90;;;;;;;3.38;90.60;100772.28;5099116;28;20032;-65
2023/11/15 05:35:02;;;;;;;2.67;0.80;;;;;;;3.34;90.57;100773.59;5099098;28;20474;-68
2023/11/15 05:37:27;;;;;;;1.55;0.75;;;;;;;3.40;90.33;100767.66;5081856;28;20123;-69
2023/11/15 05:39:53;;;;;;;1.70;0.75;;;;;;;3.58;89.41;100773.81;5081016;28;20032;-70
2023/11/15 05:42:18;;;;;;;4.18;1.13;;;;;;;3.23;90.29;100785.28;5097304;28;20107;-69
2023/11/15 05:44:43;;;;;;;0.88;0.70;;;;;;;3.23;91.36;100788.78;5098686;28;20471;-69
2023/11/15 05:47:09;;;;;;;2.97;0.80;;;;;;;3.25;90.67;100792.13;5097207;28;20028;-68
2023/11/15 05:49:34;;;;;;;1.15;0.90;;;;;;;3.23;90.76;100802.06;5100209;28;20085;-68
2023/11/15 05:52:00;;;;;;;1.48;0.70;;;;;;;3.18;89.78;100776.91;5102016;28;20089;-69
2023/11/15 05:54:27;;;;;;;2.75;0.90;;;;;;;3.38;89.51;100791.75;5084224;28;20035;-70
2023/11/15 05:56:53;;;;;;;1.60;0.75;;;;;;;3.47;89.05;100800.63;5102202;28;20028;-69
2023/11/15 05:59:19;;;;;;;1.35;0.77;;;;;;;3.49;88.85;100810.13;5100868;28;20048;-68
2023/11/15 06:01:45;;;;;;;1.20;0.80;;;;;;;3.23;89.23;100815.38;5100020;28;20464;-68
2023/11/15 06:04:10;;;;;;;0.80;0.70;;;;;;;3.19;90.58;100805.19;5100806;28;20370;-68
2023/11/15 06:06:36;;;;;;;2.13;0.95;;;;;;;3.14;91.05;100813.63;5098926;28;20455;-69
2023/11/15 06:09:01;;;;;;;2.65;1.02;;;;;;;3.13;90.84;100819.09;5099992;28;20040;-69
2023/11/15 06:11:27;;;;;;;2.35;0.90;;;;;;;3.21;90.88;100814.72;5101432;28;20027;-68
2023/11/15 06:13:52;;;;;;;1.25;1.02;;;;;;;3.02;90.55;100804.19;5083609;28;20036;-68
2023/11/15 06:16:19;;;;;;;1.90;1.00;;;;;;;3.16;90.79;100821.47;5102282;28;20073;-68
2023/11/15 06:18:44;;;;;;;1.10;0.88;;;;;;;3.13;90.41;100825.25;5102275;28;20111;-68
2023/11/15 06:21:11;;;;;;;1.05;0.95;;;;;;;3.16;90.87;100824.13;5101802;28;20111;-68
2023/11/15 06:23:37;;;;;;;3.05;1.00;;;;;;;3.25;89.90;100834.69;5102405;28;20040;-67
2023/11/15 06:26:03;;;;;;;1.35;0.82;;;;;;;3.31;89.32;100833.22;5103249;28;20558;-69
2023/11/15 06:28:29;;;;;;;1.38;0.80;;;;;;;3.08;89.67;100795.63;5098125;28;20039;-69
2023/11/15 06:30:54;;;;;;;1.52;1.15;;;;;;;3.13;90.34;100840.38;5094266;28;20028;-69
2023/11/15 06:33:20;;;;;;;1.83;1.10;;;;;;;3.15;90.19;100835.75;5099630;28;20036;-69
2023/11/15 06:35:45;;;;;;;2.33;1.10;;;;;;;3.02;90.04;100805.03;5101326;28;20368;-68
2023/11/15 06:38:10;;;;;;;1.10;0.90;;;;;;;3.22;89.71;100842.13;5102491;28;20057;-70
2023/11/15 06:40:36;;;;;;;1.10;0.98;;;;;;;3.25;89.13;100847.16;5101477;28;20386;-69
2023/11/15 06:43:01;;;;;;;1.30;0.90;;;;;;;3.32;88.84;100847.38;5084188;28;20047;-69
2023/11/15 06:45:28;;;;;;;1.98;1.10;;;;;;;3.40;87.99;100844.78;5101529;28;20035;-69
2023/11/15 06:47:53;;;;;;;1.33;0.90;;;;;;;3.38;88.13;100854.72;5101277;28;20043;-69
2023/11/15 06:50:20;;;;;;;2.75;1.05;;;;;;;3.41;87.80;100855.28;5101482;28;20024;-69
2023/11/15 06:52:45;;;;;;;1.20;1.10;;;;;;;3.34;88.08;100862.19;5101274;28;20081;-69
2023/11/15 06:55:11;;;;;;;1.15;1.00;;;;;;;3.36;87.92;100854.06;5101112;28;20031;-68
2023/11/15 06:57:41;;;;;;;1.67;1.10;;;;;;;3.41;87.76;100862.41;5101513;28;20032;-69
2023/11/15 07:00:11;;;;;;;2.13;1.15;;;;;;;3.37;87.45;100861.06;5098853;28;20026;-69
2023/11/15 07:02:37;;;;;;;1.80;1.15;;;;;;;3.33;87.88;100859.69;5101003;28;20032;-69
2023/11/15 07:05:05;;;;;;;1.58;1.25;;;;;;;3.36;88.07;100868.19;5100597;28;20039;-70
2023/11/15 07:07:30;;;;;;;1.70;1.10;;;;;;;3.29;88.11;100875.09;5084443;28;20052;-69
2023/11/15 07:09:56;;;;;;;1.45;1.00;;;;;;;3.31;89.29;100873.13;5101607;28;20038;-69
2023/11/15 07:12:23;;;;;;;1.50;1.10;;;;;;;3.28;89.51;100876.09;5102647;28;20024;-69
2023/11/15 07:14:51;;;;;;;3.58;1.20;;;;;;;3.30;88.95;100884.75;5077297;28;20517;-69
2023/11/15 07:17:19;;;;;;;1.70;1.00;;;;;;;3.33;89.06;100883.63;5099956;28;20449;-69
2023/11/15 07:19:44;;;;;;;1.52;1.08;;;;;;;3.08;90.26;100867.41;5100693;28;20032;-69
2023/11/15 07:22:10;;;;;;;1.55;1.27;;;;;;;3.06;90.33;100867.53;5102317;28;20478;-70
2023/11/15 07:24:39;;;;;;;3.58;1.20;;;;;;;3.10;91.08;100886.69;5084099;28;20462;-69
2023/11/15 07:27:07;;;;;;;1.88;0.98;;;;;;;3.06;91.21;100901.28;5102238;28;20428;-70
2023/11/15 07:29:34;;;;;;;1.45;1.00;;;;;;;3.06;92.38;100901.28;5101878;28;20028;-69
2023/11/15 07:32:01;;;;;;;1.48;0.90;;;;;;;3.21;90.93;100907.78;5100934;28;20046;-69
2023/11/15 07:34:28;;;;;;;1.00;0.90;;;;;;;3.09;91.31;100905.47;5097384;28;20034;-69
2023/11/15 07:36:55;;;;;;;1.23;1.13;;;;;;;3.12;92.00;100913.97;5098177;28;20028;-69
2023/11/15 07:39:21;;;;;;;1.42;1.13;;;;;;;3.11;91.20;100914.09;5108221;28;20016;-69
2023/11/15 07:41:47;;;;;;;1.95;1.10;;;;;;;3.19;91.14;100917.72;5108094;28;20026;-69
2023/11/15 07:44:15;;;;;;;2.22;1.23;;;;;;;3.13;90.72;100917.47;5104051;28;20048;-69
2023/11/15 07:46:42;;;;;;;1.10;0.90;;;;;;;2.98;91.09;100893.19;5102647;28;20036;-69
2023/11/15 07:49:08;;;;;;;1.40;1.10;;;;;;;2.94;91.77;100915.72;5100812;28;20032;-69
2023/11/15 07:51:35;;;;;;;1.08;0.85;;;;;;;2.97;91.95;100920.75;5102201;28;20122;-69
2023/11/15 07:54:00;;;;;;;1.50;1.08;;;;;;;2.92;92.61;100907.91;5101497;28;20035;-69
2023/11/15 07:56:26;;;;;;;2.25;1.30;;;;;;;2.94;91.91;100913.91;5099922;28;20028;-69
2023/11/15 07:58:54;;;;;;;1.50;1.15;;;;;;;2.97;92.41;100928.72;5082757;28;20111;-69
2023/11/15 08:01:22;;;;;;;2.28;1.30;;;;;;;3.03;91.98;100933.47;5101088;28;20032;-69
2023/11/15 08:03:49;;;;;;;1.45;1.02;;;;;;;3.08;91.35;100938.31;5100854;28;20104;-69
2023/11/15 08:06:15;;;;;;;1.75;1.25;;;;;;;2.87;92.21;100950.03;5082861;28;20402;-69
2023/11/15 08:08:42;;;;;;;2.13;1.10;;;;;;;3.03;92.07;100939.63;5098894;28;20020;-69
2023/11/15 08:11:09;;;;;;;2.25;1.10;;;;;;;2.98;91.77;100952.53;5076344;28;20028;-69
2023/11/15 08:13:34;;;;;;;2.22;1.33;;;;;;;2.88;92.68;100951.72;5099844;28;20028;-69
2023/11/15 08:15:59;;;;;;;1.55;1.02;;;;;;;2.91;92.55;100951.41;5101831;28;20049;-69
2023/11/15 08:18:25;;;;;;;1.33;1.20;;;;;;;3.09;92.10;100954.16;5101036;28;20024;-69
2023/11/15 08:20:53;;;;;;;1.38;1.15;;;;;;;3.10;91.72;100934.53;5100915;28;20028;-69
2023/11/15 08:23:18;;;;;;;1.73;1.20;;;;;;;3.32;90.53;100953.78;5099962;28;20093;-69
2023/11/15 08:25:50;;;;;;;2.10;1.20;;;;;;;3.17;91.03;100956.91;5099472;28;20023;-69
2023/11/15 08:28:17;;;;;;;1.42;1.23;;;;;;;3.35;90.31;100964.94;5099697;28;20028;-69
2023/11/15 08:30:45;;;;;;;2.05;1.23;;;;;;;3.36;90.71;100971.09;5094997;28;20031;-69
2023/11/15 08:33:12;;;;;;;4.07;1.33;;;;;;;3.25;91.45;100966.81;5091315;28;20475;-69
2023/11/15 08:35:38;;;;;;;1.33;1.23;;;;;;;3.47;90.64;100969.06;5097926;28;20039;-69
2023/11/15 08:38:04;;;;;;;1.90;1.10;;;;;;;3.26;91.32;100971.97;5082226;28;20031;-69
2023/11/15 08:40:31;;;;;;;1.85;1.27;;;;;;;3.45;90.37;100970.22;5084030;28;20039;-69
2023/11/15 08:42:57;;;;;;;2.40;1.20;;;;;;;3.50;90.66;100967.94;5100736;28;20056;-69
2023/11/15 08:45:22;;;;;;;1.60;1.20;;;;;;;3.41;90.32;100968.81;5107558;28;20027;-69
2023/11/15 08:47:48;;;;;;;1.52;1.20;;;;;;;3.56;90.24;100974.47;5103304;28;20035;-69
2023/11/15 08:50:14;;;;;;;1.30;1.20;;;;;;;3.56;90.45;100972.66;5100506;28;20016;-70
2023/11/15 08:52:40;;;;;;;2.65;1.30;;;;;;;3.62;89.34;100973.88;5099035;28;20117;-69
2023/11/15 08:55:11;;;;;;;2.03;1.17;;;;;;;3.62;89.59;100971.22;5100219;28;20118;-69
2023/11/15 08:57:37;;;;;;;1.52;1.20;;;;;;;3.70;89.58;100976.63;5098744;28;20035;-69
2023/11/15 09:00:03;;;;;;;1.65;1.10;;;;;;;3.59;88.87;100937.75;5099060;28;20048;-69
2023/11/15 09:02:30;;;;;;;1.70;1.02;;;;;;;3.60;89.25;100975.84;5098939;28;20043;-69
2023/11/15 09:04:56;;;;;;;2.08;1.02;;;;;;;3.71;89.56;100975.66;5100051;28;20124;-70
2023/11/15 09:07:22;;;;;;;1.27;1.10;;;;;;;4.07;88.37;100975.66;5099827;28;20045;-69
2023/11/15 09:09:48;;;;;;;1.67;1.10;;;;;;;4.19;87.72;100977.94;5099687;28;20107;-69
2023/11/15 09:12:16;;;;;;;1.42;0.90;;;;;;;3.94;86.84;100990.19;5098856;28;20045;-69
2023/11/15 09:14:41;;;;;;;1.35;0.90;;;;;;;3.90;87.29;100977.31;5100253;28;20028;-69
2023/11/15 09:17:12;;;;;;;1.00;0.80;;;;;;;3.95;86.47;100977.72;5082123;28;20035;-69
2023/11/15 09:19:38;;;;;;;1.30;0.70;;;;;;;3.89;87.02;100978.31;5098979;28;20064;-69
2023/11/15 09:22:05;;;;;;;2.03;0.70;;;;;;;3.94;86.80;100984.88;5082037;28;20130;-69
2023/11/15 09:24:30;;;;;;;0.80;0.70;;;;;;;4.00;86.35;100975.44;5099850;28;20044;-69
2023/11/15 09:26:56;;;;;;;2.22;0.85;;;;;;;3.84;86.09;100988.56;5081594;28;20026;-69
2023/11/15 09:29:23;;;;;;;5.55;0.90;;;;;;;3.81;85.87;100994.19;5100394;28;20038;-69
2023/11/15 09:31:49;;;;;;;1.45;0.70;;;;;;;3.96;84.99;100995.38;5079813;28;20024;-69
2023/11/15 09:34:16;;;;;;;0.90;0.75;;;;;;;4.10;84.73;100984.16;5092449;28;20592;-69
2023/11/15 09:36:45;;;;;;;1.95;0.80;;;;;;;4.09;83.76;100993.16;5097887;28;20494;-69
2023/11/15 09:39:10;;;;;;;1.17;0.60;;;;;;;4.25;83.79;100997.81;5099435;28;20481;-69
2023/11/15 09:41:36;;;;;;;1.52;0.80;;;;;;;4.21;83.99;100999.94;5099285;28;20070;-69
2023/11/15 09:44:09;;;;;;;2.40;0.70;;;;;;;4.18;83.18;101000.25;5101122;28;20084;-70
2023/11/15 09:46:37;;;;;;;1.00;0.70;;;;;;;4.31;83.45;101009.69;5085132;28;20035;-70
2023/11/15 09:49:05;;;;;;;2.00;0.70;;;;;;;4.08;83.83;101010.13;5098117;28;20068;-69
2023/11/15 09:51:34;;;;;;;1.25;0.75;;;;;;;4.06;83.35;101001.44;5100347;28;20097;-69
2023/11/15 09:54:06;;;;;;;2.13;0.80;;;;;;;4.22;82.54;101012.25;5098612;28;20110;-69
2023/11/15 09:56:32;;;;;;;0.80;0.60;;;;;;;4.33;82.44;101018.34;5100101;28;20028;-69
2023/11/15 09:58:58;;;;;;;1.60;0.80;;;;;;;4.27;82.76;101019.78;5081501;28;20043;-69
2023/11/15 10:01:24;;;;;;;1.55;0.80;;;;;;;4.05;83.36;101029.06;5098221;28;20029;-69
2023/11/15 10:03:52;;;;;;;2.95;0.80;;;;;;;4.08;82.98;101033.28;5099896;28;20036;-69
2023/11/15 10:06:18;;;;;;;1.73;0.70;;;;;;;3.87;84.28;101031.69;5099070;28;20020;-69
2023/11/15 10:08:52;;;;;;;1.00;0.80;;;;;;;4.16;83.64;101033.34;5097018;28;20024;-69
2023/11/15 10:11:18;;;;;;;0.75;0.75;;;;;;;4.15;82.73;101035.16;5097206;28;20020;-69
2023/11/15 10:13:44;;;;;;;2.10;0.70;;;;;;;4.27;82.07;101042.91;5098019;28;20099;-69
2023/11/15 10:16:30;;;;;;;1.08;0.70;;;;;;;4.38;81.90;101037.38;5097009;28;20021;-69
2023/11/15 10:18:56;;;;;;;4.50;0.90;;;;;;;4.12;82.78;101035.47;5098284;28;20032;-69
2023/11/15 10:21:22;;;;;;;1.40;0.80;;;;;;;3.96;83.52;101044.13;5097274;28;20027;-69
2023/11/15 10:23:51;;;;;;;3.13;0.90;;;;;;;4.04;83.13;101051.38;5098433;28;20040;-69
2023/11/15 10:26:16;;;;;;;1.35;0.93;;;;;;;4.27;82.54;101058.91;5099421;28;20028;-69
2023/11/15 10:28:44;;;;;;;2.40;0.80;;;;;;;3.94;83.43;101046.09;5091444;28;20055;-69
2023/11/15 10:31:18;;;;;;;1.65;0.80;;;;;;;3.97;83.03;101060.91;5093326;28;20399;-69
2023/11/15 10:33:50;;;;;;;1.42;0.88;;;;;;;3.76;85.17;101058.53;5097566;28;20024;-70
2023/11/15 10:36:17;;;;;;;0.88;0.80;;;;;;;3.44;85.12;101061.63;5101128;28;20043;-69
2023/11/15 10:38:51;;;;;;;1.40;0.82;;;;;;;3.44;86.13;101073.09;5103236;28;20024;-69
2023/11/15 10:41:24;;;;;;;1.08;0.80;;;;;;;3.38;86.06;101070.19;5101998;28;20390;-69
2023/11/15 10:43:51;;;;;;;1.05;0.63;;;;;;;3.30;85.99;101058.44;5102623;28;20024;-69
2023/11/15 10:46:26;;;;;;;1.42;0.80;;;;;;;3.33;85.82;101061.81;5103422;28;20035;-69
2023/11/15 10:48:52;;;;;;;1.70;0.65;;;;;;;3.26;85.39;101045.59;5102090;28;20024;-70
2023/11/15 10:51:23;;;;;;;3.30;0.70;;;;;;;3.84;84.15;101063.97;5103448;28;20020;-69
2023/11/15 10:53:50;;;;;;;0.90;0.80;;;;;;;3.73;84.03;101064.97;5101735;28;20137;-69
2023/11/15 10:56:17;;;;;;;4.00;0.80;;;;;;;3.58;84.40;101069.16;5101917;28;20329;-69
2023/11/15 10:58:47;;;;;;;1.88;0.98;;;;;;;3.78;84.48;101066.38;5103446;28;20062;-69
2023/11/15 11:01:18;;;;;;;1.15;0.88;;;;;;;3.72;83.65;101067.81;5103378;28;20043;-69
2023/11/15 11:03:51;;;;;;;3.63;0.80;;;;;;;3.89;84.52;101071.50;5114424;28;20024;-69
2023/11/15 11:06:36;;;;;;;1.58;1.23;;;;;;;3.57;84.77;101070.09;5099023;28;20060;-69
2023/11/15 11:09:21;;;;;;;3.22;0.80;;;;;;;3.55;84.85;101056.13;5101728;28;20055;-69
2023/11/15 11:12:10;;;;;;;1.27;0.90;;;;;;;3.51;86.07;101081.38;5102961;28;20467;-69
2023/11/15 11:14:37;;;;;;;1.10;0.88;;;;;;;3.53;87.15;101076.72;5103267;28;20024;-69
2023/11/15 11:17:02;;;;;;;1.60;1.05;;;;;;;3.51;86.38;101071.56;5102590;28;20058;-69
2023/11/15 11:19:28;;;;;;;1.73;0.82;;;;;;;3.56;86.89;101070.25;5109095;28;20039;-69
2023/11/15 11:22:03;;;;;;;1.27;0.80;;;;;;;3.93;86.27;101081.69;5104235;28;20034;-70
2023/11/15 11:24:31;;;;;;;;;;;;;;;4.21;83.80;101079.00;5102122;28;20024;-70
2023/11/15 11:27:17;;;;;;;2.30;1.00;;;;;;;3.75;85.13;101064.84;5085301;28;19912;-69
2023/11/15 11:29:49;;;;;;;1.10;0.80;;;;;;;4.03;85.51;101070.97;5091584;28;20036;-69
2023/11/15 11:32:20;;;;;;;1.85;0.80;;;;;;;3.78;85.10;101045.94;5101507;28;20031;-69